sensor_id;sensor_type;location;lat;lon;timestamp;pressure;altitude;pressure_sealevel;temperature;humidity
33625;BME280;19962;47.820;1.930;2024-03-06T00:02:11;100760.22;;;9.87;78.96
33625;BME280;19962;47.820;1.930;2024-03-06T00:04:38;100763.59;;;9.82;79.36
33625;BME280;19962;47.820;1.930;2024-03-06T00:07:04;100770.75;;;9.83;79.49
33625;BME280;19962;47.820;1.930;2024-03-06T00:09:30;100773.66;;;9.88;79.46
33625;BME280;19962;47.820;1.930;2024-03-06T00:11:57;100771.38;;;9.86;79.49
33625;BME280;19962;47.820;1.930;2024-03-06T00:14:24;100774.13;;;9.86;79.58
33625;BME280;19962;47.820;1.930;2024-03-06T00:16:51;100779.13;;;9.88;79.61
33625;BME280;19962;47.820;1.930;2024-03-06T00:19:20;100779.59;;;9.86;79.71
33625;BME280;19962;47.820;1.930;2024-03-06T00:21:46;100785.06;;;9.86;79.50
33625;BME280;19962;47.820;1.930;2024-03-06T00:24:13;100785.50;;;9.82;79.78
33625;BME280;19962;47.820;1.930;2024-03-06T00:26:46;100785.06;;;9.86;79.73
33625;BME280;19962;47.820;1.930;2024-03-06T00:29:14;100784.44;;;9.83;79.93
33625;BME280;19962;47.820;1.930;2024-03-06T00:31:45;100782.16;;;9.81;79.92
33625;BME280;19962;47.820;1.930;2024-03-06T00:34:12;100784.44;;;9.83;79.82
33625;BME280;19962;47.820;1.930;2024-03-06T00:36:42;100790.38;;;9.81;79.84
33625;BME280;19962;47.820;1.930;2024-03-06T00:39:09;100794.41;;;9.78;79.97
33625;BME280;19962;47.820;1.930;2024-03-06T00:41:36;100791.41;;;9.79;80.19
33625;BME280;19962;47.820;1.930;2024-03-06T00:44:02;100797.34;;;9.77;80.17
33625;BME280;19962;47.820;1.930;2024-03-06T00:46:29;100794.19;;;9.73;80.74
33625;BME280;19962;47.820;1.930;2024-03-06T00:48:55;100800.31;;;9.75;80.46
33625;BME280;19962;47.820;1.930;2024-03-06T00:51:21;100797.38;;;9.70;80.95
33625;BME280;19962;47.820;1.930;2024-03-06T00:53:47;100795.22;;;9.78;80.77
33625;BME280;19962;47.820;1.930;2024-03-06T00:56:13;100799.47;;;9.74;81.02
33625;BME280;19962;47.820;1.930;2024-03-06T00:58:39;100795.03;;;9.73;80.93
33625;BME280;19962;47.820;1.930;2024-03-06T01:01:05;100793.19;;;9.68;81.21
33625;BME280;19962;47.820;1.930;2024-03-06T01:03:31;100800.13;;;9.70;81.11
33625;BME280;19962;47.820;1.930;2024-03-06T01:05:57;100801.59;;;9.73;81.10
33625;BME280;19962;47.820;1.930;2024-03-06T01:08:23;100793.38;;;9.73;81.26
33625;BME280;19962;47.820;1.930;2024-03-06T01:10:51;100799.06;;;9.71;81.09
33625;BME280;19962;47.820;1.930;2024-03-06T01:13:18;100799.66;;;9.73;81.05
33625;BME280;19962;47.820;1.930;2024-03-06T01:15:44;100792.09;;;9.75;81.21
33625;BME280;19962;47.820;1.930;2024-03-06T01:18:10;100791.41;;;9.79;80.86
33625;BME280;19962;47.820;1.930;2024-03-06T01:20:37;100794.41;;;9.78;80.79
33625;BME280;19962;47.820;1.930;2024-03-06T01:23:03;100785.34;;;9.77;81.27
33625;BME280;19962;47.820;1.930;2024-03-06T01:25:29;100792.91;;;9.75;80.95
33625;BME280;19962;47.820;1.930;2024-03-06T01:27:55;100789.81;;;9.65;81.64
33625;BME280;19962;47.820;1.930;2024-03-06T01:30:21;100800.94;;;9.70;81.41
33625;BME280;19962;47.820;1.930;2024-03-06T01:32:47;100793.19;;;9.68;81.36
33625;BME280;19962;47.820;1.930;2024-03-06T01:35:14;100789.03;;;9.58;81.94
33625;BME280;19962;47.820;1.930;2024-03-06T01:37:40;100789.59;;;9.67;81.79
33625;BME280;19962;47.820;1.930;2024-03-06T01:40:06;100790.25;;;9.69;81.66
33625;BME280;19962;47.820;1.930;2024-03-06T01:42:33;100789.38;;;9.68;81.60
33625;BME280;19962;47.820;1.930;2024-03-06T01:44:59;100787.94;;;9.66;81.87
33625;BME280;19962;47.820;1.930;2024-03-06T01:47:25;100781.38;;;9.67;81.84
33625;BME280;19962;47.820;1.930;2024-03-06T01:49:52;100794.44;;;9.72;81.28
33625;BME280;19962;47.820;1.930;2024-03-06T01:52:19;100799.91;;;9.72;81.43
33625;BME280;19962;47.820;1.930;2024-03-06T01:54:48;100799.25;;;9.76;81.47
33625;BME280;19962;47.820;1.930;2024-03-06T01:57:16;100790.63;;;9.73;81.61
33625;BME280;19962;47.820;1.930;2024-03-06T01:59:43;100789.75;;;9.78;81.07
33625;BME280;19962;47.820;1.930;2024-03-06T02:02:09;100790.19;;;9.75;80.94
33625;BME280;19962;47.820;1.930;2024-03-06T02:04:37;100793.97;;;9.74;80.99
33625;BME280;19962;47.820;1.930;2024-03-06T02:07:06;100788.72;;;9.73;81.18
33625;BME280;19962;47.820;1.930;2024-03-06T02:09:34;100790.63;;;9.73;81.25
33625;BME280;19962;47.820;1.930;2024-03-06T02:12:00;100786.41;;;9.77;81.16
33625;BME280;19962;47.820;1.930;2024-03-06T02:14:26;100785.75;;;9.74;81.01
33625;BME280;19962;47.820;1.930;2024-03-06T02:16:53;100789.13;;;9.77;81.05
33625;BME280;19962;47.820;1.930;2024-03-06T02:19:19;100785.34;;;9.77;80.82
33625;BME280;19962;47.820;1.930;2024-03-06T02:21:45;100779.66;;;9.73;81.21
33625;BME280;19962;47.820;1.930;2024-03-06T02:24:11;100783.47;;;9.72;81.15
33625;BME280;19962;47.820;1.930;2024-03-06T02:26:39;100780.09;;;9.69;81.27
33625;BME280;19962;47.820;1.930;2024-03-06T02:29:06;100786.00;;;9.66;81.43
33625;BME280;19962;47.820;1.930;2024-03-06T02:31:32;100794.88;;;9.68;81.08
33625;BME280;19962;47.820;1.930;2024-03-06T02:33:59;100792.16;;;9.62;81.22
33625;BME280;19962;47.820;1.930;2024-03-06T02:36:25;100801.66;;;9.59;81.64
33625;BME280;19962;47.820;1.930;2024-03-06T02:38:51;100803.34;;;9.60;81.72
33625;BME280;19962;47.820;1.930;2024-03-06T02:41:17;100803.75;;;9.57;81.43
33625;BME280;19962;47.820;1.930;2024-03-06T02:43:44;100802.94;;;9.57;81.78
33625;BME280;19962;47.820;1.930;2024-03-06T02:46:10;100797.47;;;9.57;81.60
33625;BME280;19962;47.820;1.930;2024-03-06T02:48:36;100796.19;;;9.59;81.79
33625;BME280;19962;47.820;1.930;2024-03-06T02:51:02;100806.28;;;9.59;81.70
33625;BME280;19962;47.820;1.930;2024-03-06T02:53:28;100806.25;;;9.65;81.64
33625;BME280;19962;47.820;1.930;2024-03-06T02:55:54;100809.19;;;9.64;81.57
33625;BME280;19962;47.820;1.930;2024-03-06T02:58:20;100793.19;;;9.68;81.39
33625;BME280;19962;47.820;1.930;2024-03-06T03:00:46;100800.78;;;9.65;81.48
33625;BME280;19962;47.820;1.930;2024-03-06T03:03:13;100793.44;;;9.59;81.87
33625;BME280;19962;47.820;1.930;2024-03-06T03:05:40;100795.31;;;9.59;82.09
33625;BME280;19962;47.820;1.930;2024-03-06T03:08:09;100795.09;;;9.67;81.91
33625;BME280;19962;47.820;1.930;2024-03-06T03:10:35;100796.59;;;9.56;82.17
33625;BME280;19962;47.820;1.930;2024-03-06T03:13:02;100793.69;;;9.51;82.21
33625;BME280;19962;47.820;1.930;2024-03-06T03:15:28;100787.56;;;9.56;82.52
33625;BME280;19962;47.820;1.930;2024-03-06T03:17:54;100788.38;;;9.56;82.48
33625;BME280;19962;47.820;1.930;2024-03-06T03:20:20;100780.13;;;9.63;82.11
33625;BME280;19962;47.820;1.930;2024-03-06T03:22:46;100785.44;;;9.58;82.27
33625;BME280;19962;47.820;1.930;2024-03-06T03:25:13;100782.72;;;9.51;82.55
33625;BME280;19962;47.820;1.930;2024-03-06T03:27:40;100780.41;;;9.48;82.86
33625;BME280;19962;47.820;1.930;2024-03-06T03:30:16;100784.22;;;9.47;82.86
33625;BME280;19962;47.820;1.930;2024-03-06T03:32:42;100786.56;;;9.44;82.88
33625;BME280;19962;47.820;1.930;2024-03-06T03:35:08;100789.09;;;9.45;83.29
33625;BME280;19962;47.820;1.930;2024-03-06T03:37:35;100785.47;;;9.51;82.97
33625;BME280;19962;47.820;1.930;2024-03-06T03:40:01;100782.28;;;9.54;82.73
33625;BME280;19962;47.820;1.930;2024-03-06T03:42:28;100784.84;;;9.49;82.99
33625;BME280;19962;47.820;1.930;2024-03-06T03:44:54;100788.84;;;9.53;83.27
33625;BME280;19962;47.820;1.930;2024-03-06T03:47:20;100785.69;;;9.50;82.86
33625;BME280;19962;47.820;1.930;2024-03-06T03:49:46;100787.97;;;9.59;82.55
33625;BME280;19962;47.820;1.930;2024-03-06T03:52:13;100790.91;;;9.58;82.88
33625;BME280;19962;47.820;1.930;2024-03-06T03:54:39;100788.84;;;9.53;82.77
33625;BME280;19962;47.820;1.930;2024-03-06T03:57:06;100795.34;;;9.52;82.97
33625;BME280;19962;47.820;1.930;2024-03-06T03:59:34;100801.50;;;9.48;83.46
33625;BME280;19962;47.820;1.930;2024-03-06T04:02:00;100795.81;;;9.49;83.32
33625;BME280;19962;47.820;1.930;2024-03-06T04:04:26;100802.28;;;9.55;83.41
33625;BME280;19962;47.820;1.930;2024-03-06T04:06:52;100803.34;;;9.60;82.96
33625;BME280;19962;47.820;1.930;2024-03-06T04:09:18;100804.41;;;9.59;83.23
33625;BME280;19962;47.820;1.930;2024-03-06T04:11:44;100809.22;;;9.57;83.18
33625;BME280;19962;47.820;1.930;2024-03-06T04:14:10;100804.63;;;9.51;83.25
33625;BME280;19962;47.820;1.930;2024-03-06T04:16:36;100813.91;;;9.50;83.53
33625;BME280;19962;47.820;1.930;2024-03-06T04:19:03;100814.97;;;9.49;83.73
33625;BME280;19962;47.820;1.930;2024-03-06T04:21:29;100817.25;;;9.52;83.76
33625;BME280;19962;47.820;1.930;2024-03-06T04:23:55;100809.47;;;9.56;83.39
33625;BME280;19962;47.820;1.930;2024-03-06T04:26:21;100808.63;;;9.55;83.22
33625;BME280;19962;47.820;1.930;2024-03-06T04:28:47;100816.03;;;9.42;83.61
33625;BME280;19962;47.820;1.930;2024-03-06T04:31:13;100810.13;;;9.45;83.86
33625;BME280;19962;47.820;1.930;2024-03-06T04:33:41;100815.22;;;9.41;84.26
33625;BME280;19962;47.820;1.930;2024-03-06T04:36:09;100816.88;;;9.49;83.55
33625;BME280;19962;47.820;1.930;2024-03-06T04:38:36;100818.56;;;9.43;83.89
33625;BME280;19962;47.820;1.930;2024-03-06T04:41:02;100824.91;;;9.44;83.87
33625;BME280;19962;47.820;1.930;2024-03-06T04:43:28;100821.31;;;9.43;84.36
33625;BME280;19962;47.820;1.930;2024-03-06T04:45:54;100816.47;;;9.45;84.12
33625;BME280;19962;47.820;1.930;2024-03-06T04:48:20;100814.34;;;9.47;83.99
33625;BME280;19962;47.820;1.930;2024-03-06T04:50:46;100821.09;;;9.45;83.95
33625;BME280;19962;47.820;1.930;2024-03-06T04:53:12;100829.94;;;9.47;84.15
33625;BME280;19962;47.820;1.930;2024-03-06T04:55:39;100824.47;;;9.47;83.87
33625;BME280;19962;47.820;1.930;2024-03-06T04:58:05;100831.22;;;9.44;83.95
33625;BME280;19962;47.820;1.930;2024-03-06T05:00:32;100832.47;;;9.42;84.07
33625;BME280;19962;47.820;1.930;2024-03-06T05:02:58;100833.72;;;9.46;84.13
33625;BME280;19962;47.820;1.930;2024-03-06T05:05:26;100835.19;;;9.48;84.24
33625;BME280;19962;47.820;1.930;2024-03-06T05:07:52;100830.13;;;9.52;83.79
33625;BME280;19962;47.820;1.930;2024-03-06T05:10:18;100832.22;;;9.50;83.83
33625;BME280;19962;47.820;1.930;2024-03-06T05:12:45;100822.38;;;9.42;84.15
33625;BME280;19962;47.820;1.930;2024-03-06T05:15:11;100834.16;;;9.49;84.21
33625;BME280;19962;47.820;1.930;2024-03-06T05:17:37;100832.41;;;9.55;83.94
33625;BME280;19962;47.820;1.930;2024-03-06T05:20:04;100832.03;;;9.51;84.06
33625;BME280;19962;47.820;1.930;2024-03-06T05:22:30;100833.09;;;9.50;84.16
33625;BME280;19962;47.820;1.930;2024-03-06T05:24:56;100846.13;;;9.48;84.13
33625;BME280;19962;47.820;1.930;2024-03-06T05:27:24;100836.25;;;9.47;84.13
33625;BME280;19962;47.820;1.930;2024-03-06T05:29:51;100843.84;;;9.45;84.67
33625;BME280;19962;47.820;1.930;2024-03-06T05:32:17;100844.69;;;9.39;84.63
33625;BME280;19962;47.820;1.930;2024-03-06T05:34:43;100851.03;;;9.40;84.72
33625;BME280;19962;47.820;1.930;2024-03-06T05:37:10;100849.75;;;9.42;84.46
33625;BME280;19962;47.820;1.930;2024-03-06T05:39:36;100852.69;;;9.47;84.27
33625;BME280;19962;47.820;1.930;2024-03-06T05:42:06;100864.09;;;9.44;84.61
33625;BME280;19962;47.820;1.930;2024-03-06T05:44:32;100859.00;;;9.48;84.18
33625;BME280;19962;47.820;1.930;2024-03-06T05:47:00;100856.06;;;9.49;84.29
33625;BME280;19962;47.820;1.930;2024-03-06T05:49:29;100858.38;;;9.46;84.36
33625;BME280;19962;47.820;1.930;2024-03-06T05:51:56;100860.28;;;9.45;84.37
33625;BME280;19962;47.820;1.930;2024-03-06T05:54:23;100859.03;;;9.41;84.55
33625;BME280;19962;47.820;1.930;2024-03-06T05:56:50;100864.94;;;9.38;84.92
33625;BME280;19962;47.820;1.930;2024-03-06T05:59:17;100872.06;;;9.39;84.65
33625;BME280;19962;47.820;1.930;2024-03-06T06:01:44;100865.75;;;9.45;84.75
33625;BME280;19962;47.820;1.930;2024-03-06T06:04:10;100864.50;;;9.48;84.70
33625;BME280;19962;47.820;1.930;2024-03-06T06:06:37;100873.78;;;9.47;84.75
33625;BME280;19962;47.820;1.930;2024-03-06T06:09:03;100880.06;;;9.47;84.62
33625;BME280;19962;47.820;1.930;2024-03-06T06:11:31;100880.47;;;9.51;84.55
33625;BME280;19962;47.820;1.930;2024-03-06T06:13:59;100881.31;;;9.51;84.27
33625;BME280;19962;47.820;1.930;2024-03-06T06:16:25;100890.19;;;9.53;84.32
33625;BME280;19962;47.820;1.930;2024-03-06T06:18:51;100886.34;;;9.61;83.89
33625;BME280;19962;47.820;1.930;2024-03-06T06:21:18;100889.31;;;9.59;83.80
33625;BME280;19962;47.820;1.930;2024-03-06T06:23:44;100885.50;;;9.60;84.10
33625;BME280;19962;47.820;1.930;2024-03-06T06:26:11;100899.44;;;9.52;84.21
33625;BME280;19962;47.820;1.930;2024-03-06T06:28:40;100898.41;;;9.53;84.50
33625;BME280;19962;47.820;1.930;2024-03-06T06:31:06;100905.94;;;9.58;84.42
33625;BME280;19962;47.820;1.930;2024-03-06T06:33:32;100904.47;;;9.62;84.49
33625;BME280;19962;47.820;1.930;2024-03-06T06:35:58;100907.22;;;9.62;84.31
33625;BME280;19962;47.820;1.930;2024-03-06T06:38:24;100909.75;;;9.63;83.99
33625;BME280;19962;47.820;1.930;2024-03-06T06:40:50;100909.09;;;9.61;84.34
33625;BME280;19962;47.820;1.930;2024-03-06T06:43:16;100918.38;;;9.60;84.23
33625;BME280;19962;47.820;1.930;2024-03-06T06:45:42;100919.03;;;9.63;84.13
33625;BME280;19962;47.820;1.930;2024-03-06T06:48:08;100920.69;;;9.63;84.22
33625;BME280;19962;47.820;1.930;2024-03-06T06:50:35;100923.03;;;9.60;84.17
33625;BME280;19962;47.820;1.930;2024-03-06T06:53:01;100933.13;;;9.59;84.22
33625;BME280;19962;47.820;1.930;2024-03-06T06:55:27;100937.34;;;9.55;84.12
33625;BME280;19962;47.820;1.930;2024-03-06T06:57:54;100930.41;;;9.59;84.03
33625;BME280;19962;47.820;1.930;2024-03-06T07:00:20;100925.34;;;9.56;84.27
33625;BME280;19962;47.820;1.930;2024-03-06T07:02:48;100931.88;;;9.55;84.15
33625;BME280;19962;47.820;1.930;2024-03-06T07:05:15;100934.00;;;9.53;84.48
33625;BME280;19962;47.820;1.930;2024-03-06T07:07:44;100937.34;;;9.55;84.43
33625;BME280;19962;47.820;1.930;2024-03-06T07:10:11;100937.97;;;9.57;84.45
33625;BME280;19962;47.820;1.930;2024-03-06T07:12:37;100942.84;;;9.55;84.42
33625;BME280;19962;47.820;1.930;2024-03-06T07:15:03;100944.50;;;9.56;84.23
33625;BME280;19962;47.820;1.930;2024-03-06T07:17:30;100943.91;;;9.54;84.38
33625;BME280;19962;47.820;1.930;2024-03-06T07:19:56;100944.94;;;9.60;84.38
33625;BME280;19962;47.820;1.930;2024-03-06T07:22:22;100946.19;;;9.64;84.37
33625;BME280;19962;47.820;1.930;2024-03-06T07:24:48;100949.97;;;9.69;84.38
33625;BME280;19962;47.820;1.930;2024-03-06T07:27:15;100955.41;;;9.76;83.98
33625;BME280;19962;47.820;1.930;2024-03-06T07:29:41;100956.28;;;9.70;84.00
33625;BME280;19962;47.820;1.930;2024-03-06T07:32:07;100958.38;;;9.68;84.34
33625;BME280;19962;47.820;1.930;2024-03-06T07:34:34;100963.66;;;9.76;84.04
33625;BME280;19962;47.820;1.930;2024-03-06T07:37:00;100962.16;;;9.80;83.84
33625;BME280;19962;47.820;1.930;2024-03-06T07:39:27;100972.91;;;9.82;83.78
33625;BME280;19962;47.820;1.930;2024-03-06T07:41:53;100966.38;;;9.82;83.68
33625;BME280;19962;47.820;1.930;2024-03-06T07:44:20;100969.09;;;9.82;83.41
33625;BME280;19962;47.820;1.930;2024-03-06T07:46:46;100973.34;;;9.78;83.66
33625;BME280;19962;47.820;1.930;2024-03-06T07:49:12;100968.06;;;9.77;83.90
33625;BME280;19962;47.820;1.930;2024-03-06T07:51:39;100973.34;;;9.78;83.80
33625;BME280;19962;47.820;1.930;2024-03-06T07:54:06;100973.09;;;9.87;83.55
33625;BME280;19962;47.820;1.930;2024-03-06T07:56:33;100963.19;;;9.92;83.56
33625;BME280;19962;47.820;1.930;2024-03-06T07:58:59;100965.25;;;9.97;83.49
33625;BME280;19962;47.820;1.930;2024-03-06T08:01:25;100969.66;;;10.04;82.81
33625;BME280;19962;47.820;1.930;2024-03-06T08:03:54;100965.47;;;10.08;82.79
33625;BME280;19962;47.820;1.930;2024-03-06T08:06:21;100969.03;;;10.15;82.65
33625;BME280;19962;47.820;1.930;2024-03-06T08:08:47;100964.75;;;10.26;82.47
33625;BME280;19962;47.820;1.930;2024-03-06T08:11:16;100970.00;;;10.34;82.71
33625;BME280;19962;47.820;1.930;2024-03-06T08:13:43;100973.94;;;10.44;81.71
33625;BME280;19962;47.820;1.930;2024-03-06T08:16:09;100972.00;;;10.51;81.86
33625;BME280;19962;47.820;1.930;2024-03-06T08:18:37;100974.00;;;10.69;81.38
33625;BME280;19962;47.820;1.930;2024-03-06T08:21:03;100974.81;;;10.76;81.07
33625;BME280;19962;47.820;1.930;2024-03-06T08:23:32;100969.56;;;10.68;81.00
33625;BME280;19962;47.820;1.930;2024-03-06T08:25:59;100969.00;;;10.59;81.55
33625;BME280;19962;47.820;1.930;2024-03-06T08:28:26;100987.66;;;10.44;80.87
33625;BME280;19962;47.820;1.930;2024-03-06T08:30:53;100983.00;;;10.45;81.56
33625;BME280;19962;47.820;1.930;2024-03-06T08:33:19;100984.69;;;10.46;81.08
33625;BME280;19962;47.820;1.930;2024-03-06T08:35:47;100980.47;;;10.43;81.51
33625;BME280;19962;47.820;1.930;2024-03-06T08:38:13;100987.41;;;10.52;81.64
33625;BME280;19962;47.820;1.930;2024-03-06T08:40:39;100986.13;;;10.55;81.23
33625;BME280;19962;47.820;1.930;2024-03-06T08:43:07;100985.94;;;10.50;81.05
33625;BME280;19962;47.820;1.930;2024-03-06T08:45:34;100982.59;;;10.48;80.96
33625;BME280;19962;47.820;1.930;2024-03-06T08:48:00;100977.03;;;10.61;81.23
33625;BME280;19962;47.820;1.930;2024-03-06T08:50:27;100984.19;;;10.62;81.52
33625;BME280;19962;47.820;1.930;2024-03-06T08:52:53;100980.13;;;10.71;80.88
33625;BME280;19962;47.820;1.930;2024-03-06T08:55:19;100988.78;;;10.68;81.16
33625;BME280;19962;47.820;1.930;2024-03-06T08:57:45;100993.28;;;10.87;79.84
33625;BME280;19962;47.820;1.930;2024-03-06T09:00:11;100977.47;;;10.89;80.04
33625;BME280;19962;47.820;1.930;2024-03-06T09:02:38;100986.53;;;10.89;80.55
33625;BME280;19962;47.820;1.930;2024-03-06T09:05:08;100991.47;;;11.05;80.53
33625;BME280;19962;47.820;1.930;2024-03-06T09:07:36;100998.88;;;11.05;80.71
33625;BME280;19962;47.820;1.930;2024-03-06T09:10:13;101004.56;;;11.10;80.43
33625;BME280;19962;47.820;1.930;2024-03-06T09:12:39;101005.34;;;11.17;80.55
33625;BME280;19962;47.820;1.930;2024-03-06T09:15:06;100997.91;;;11.24;80.49
33625;BME280;19962;47.820;1.930;2024-03-06T09:17:33;101010.44;;;11.38;80.01
33625;BME280;19962;47.820;1.930;2024-03-06T09:20:00;101005.78;;;11.38;79.56
33625;BME280;19962;47.820;1.930;2024-03-06T09:22:36;101009.16;;;11.40;79.30
33625;BME280;19962;47.820;1.930;2024-03-06T09:25:02;101007.69;;;11.38;79.25
33625;BME280;19962;47.820;1.930;2024-03-06T09:27:28;101012.13;;;11.39;79.71
33625;BME280;19962;47.820;1.930;2024-03-06T09:29:54;101011.91;;;11.40;79.70
33625;BME280;19962;47.820;1.930;2024-03-06T09:32:22;101021.53;;;11.49;79.61
33625;BME280;19962;47.820;1.930;2024-03-06T09:34:48;101021.94;;;11.53;79.00
33625;BME280;19962;47.820;1.930;2024-03-06T09:37:14;101024.25;;;11.56;78.42
33625;BME280;19962;47.820;1.930;2024-03-06T09:39:40;101024.25;;;11.56;78.78
33625;BME280;19962;47.820;1.930;2024-03-06T09:42:07;101024.03;;;11.57;78.79
33625;BME280;19962;47.820;1.930;2024-03-06T09:44:34;101016.38;;;11.59;78.50
33625;BME280;19962;47.820;1.930;2024-03-06T09:47:02;101013.75;;;11.71;78.03
33625;BME280;19962;47.820;1.930;2024-03-06T09:49:32;101025.91;;;11.81;78.42
33625;BME280;19962;47.820;1.930;2024-03-06T09:52:00;101029.84;;;11.92;78.07
33625;BME280;19962;47.820;1.930;2024-03-06T09:54:28;101027.38;;;12.02;77.69
33625;BME280;19962;47.820;1.930;2024-03-06T09:56:55;101021.66;;;12.03;77.34
33625;BME280;19962;47.820;1.930;2024-03-06T09:59:23;101029.75;;;11.98;77.60
33625;BME280;19962;47.820;1.930;2024-03-06T10:01:57;101027.38;;;12.02;77.24
33625;BME280;19962;47.820;1.930;2024-03-06T10:04:27;101021.06;;;12.19;77.68
33625;BME280;19962;47.820;1.930;2024-03-06T10:06:58;101028.47;;;12.19;77.28
33625;BME280;19962;47.820;1.930;2024-03-06T10:09:25;101029.19;;;12.14;77.10
33625;BME280;19962;47.820;1.930;2024-03-06T10:11:51;101028.53;;;12.12;77.16
33625;BME280;19962;47.820;1.930;2024-03-06T10:14:22;101030.16;;;12.20;76.79
33625;BME280;19962;47.820;1.930;2024-03-06T10:16:58;101036.72;;;12.19;75.86
33625;BME280;19962;47.820;1.930;2024-03-06T10:19:26;101027.63;;;12.18;76.16
33625;BME280;19962;47.820;1.930;2024-03-06T10:21:57;101039.09;;;12.15;76.50
33625;BME280;19962;47.820;1.930;2024-03-06T10:24:24;101032.28;;;12.18;76.68
33625;BME280;19962;47.820;1.930;2024-03-06T10:26:52;101028.63;;;12.06;76.46
33625;BME280;19962;47.820;1.930;2024-03-06T10:29:21;101038.06;;;11.92;76.48
33625;BME280;19962;47.820;1.930;2024-03-06T10:31:58;101035.50;;;11.97;75.62
33625;BME280;19962;47.820;1.930;2024-03-06T10:34:26;101040.16;;;11.96;75.58
33625;BME280;19962;47.820;1.930;2024-03-06T10:37:02;101042.63;;;11.80;75.12
33625;BME280;19962;47.820;1.930;2024-03-06T10:39:36;101041.59;;;11.81;76.12
33625;BME280;19962;47.820;1.930;2024-03-06T10:42:07;101038.88;;;11.99;75.75
33625;BME280;19962;47.820;1.930;2024-03-06T10:44:34;101043.75;;;12.15;75.36
33625;BME280;19962;47.820;1.930;2024-03-06T10:47:05;101050.31;;;12.32;75.02
33625;BME280;19962;47.820;1.930;2024-03-06T10:49:34;101038.66;;;12.36;74.85
33625;BME280;19962;47.820;1.930;2024-03-06T10:52:02;101044.59;;;12.51;74.30
33625;BME280;19962;47.820;1.930;2024-03-06T10:54:33;101034.63;;;12.68;74.16
33625;BME280;19962;47.820;1.930;2024-03-06T10:57:01;101034.91;;;12.78;72.99
33625;BME280;19962;47.820;1.930;2024-03-06T10:59:28;101035.38;;;12.75;73.30
33625;BME280;19962;47.820;1.930;2024-03-06T11:01:59;101037.03;;;12.76;72.47
33625;BME280;19962;47.820;1.930;2024-03-06T11:04:32;101035.16;;;12.59;72.77
33625;BME280;19962;47.820;1.930;2024-03-06T11:07:01;101038.38;;;12.56;73.41
33625;BME280;19962;47.820;1.930;2024-03-06T11:09:35;101034.41;;;12.52;73.43
33625;BME280;19962;47.820;1.930;2024-03-06T11:12:02;101034.22;;;12.65;73.09
33625;BME280;19962;47.820;1.930;2024-03-06T11:14:31;101036.38;;;12.63;71.85
33625;BME280;19962;47.820;1.930;2024-03-06T11:19:25;101037.97;;;12.70;71.92
33625;BME280;19962;47.820;1.930;2024-03-06T11:21:52;101044.22;;;12.48;71.86
33625;BME280;19962;47.820;1.930;2024-03-06T11:24:19;101045.28;;;12.29;72.21
33625;BME280;19962;47.820;1.930;2024-03-06T11:26:59;101054.00;;;12.44;71.68
33625;BME280;19962;47.820;1.930;2024-03-06T11:29:29;101050.91;;;12.34;71.91
33625;BME280;19962;47.820;1.930;2024-03-06T11:32:04;101046.66;;;12.38;71.45
33625;BME280;19962;47.820;1.930;2024-03-06T11:34:34;101046.19;;;12.41;71.90
33625;BME280;19962;47.820;1.930;2024-03-06T11:37:03;101047.22;;;12.28;71.72
33625;BME280;19962;47.820;1.930;2024-03-06T11:39:34;101052.72;;;12.28;71.91
33625;BME280;19962;47.820;1.930;2024-03-06T11:42:00;101042.22;;;12.37;71.45
33625;BME280;19962;47.820;1.930;2024-03-06T11:44:27;101053.28;;;12.48;71.13
33625;BME280;19962;47.820;1.930;2024-03-06T11:46:58;101044.78;;;12.68;70.61
33625;BME280;19962;47.820;1.930;2024-03-06T11:49:30;101044.16;;;12.84;69.96
33625;BME280;19962;47.820;1.930;2024-03-06T11:52:08;101047.72;;;12.84;69.25
33625;BME280;19962;47.820;1.930;2024-03-06T11:54:34;101045.84;;;12.85;69.58
33625;BME280;19962;47.820;1.930;2024-03-06T11:57:01;101049.81;;;12.89;69.41
33625;BME280;19962;47.820;1.930;2024-03-06T11:59:30;101044.44;;;12.94;69.17
33625;BME280;19962;47.820;1.930;2024-03-06T12:01:58;101044.13;;;13.02;68.65
33625;BME280;19962;47.820;1.930;2024-03-06T12:04:27;101047.03;;;13.07;68.43
33625;BME280;19962;47.820;1.930;2024-03-06T12:06:57;101043.66;;;13.05;68.21
33625;BME280;19962;47.820;1.930;2024-03-06T12:09:32;101047.41;;;12.92;68.00
33625;BME280;19962;47.820;1.930;2024-03-06T12:11:58;101050.47;;;12.84;68.60
33625;BME280;19962;47.820;1.930;2024-03-06T12:14:24;101044.06;;;12.90;68.72
33625;BME280;19962;47.820;1.930;2024-03-06T12:17:00;101041.84;;;12.99;68.86
33625;BME280;19962;47.820;1.930;2024-03-06T12:19:33;101042.81;;;13.04;68.30
33625;BME280;19962;47.820;1.930;2024-03-06T12:22:03;101041.38;;;13.02;68.15
33625;BME280;19962;47.820;1.930;2024-03-06T12:24:30;101038.56;;;12.90;68.65
33625;BME280;19962;47.820;1.930;2024-03-06T12:27:04;101038.66;;;12.84;68.58
33625;BME280;19962;47.820;1.930;2024-03-06T12:29:31;101044.94;;;12.73;68.73
33625;BME280;19962;47.820;1.930;2024-03-06T12:32:01;101035.31;;;12.64;69.25
33625;BME280;19962;47.820;1.930;2024-03-06T12:34:28;101039.16;;;12.63;69.82
33625;BME280;19962;47.820;1.930;2024-03-06T12:36:55;101036.75;;;12.66;69.50
33625;BME280;19962;47.820;1.930;2024-03-06T12:39:23;101032.19;;;12.60;69.50
33625;BME280;19962;47.820;1.930;2024-03-06T12:41:52;101038.16;;;12.57;69.16
33625;BME280;19962;47.820;1.930;2024-03-06T12:44:22;101027.75;;;12.59;69.49
33625;BME280;19962;47.820;1.930;2024-03-06T12:46:48;101033.13;;;12.54;69.41
33625;BME280;19962;47.820;1.930;2024-03-06T12:49:15;101031.75;;;12.45;69.47
33625;BME280;19962;47.820;1.930;2024-03-06T12:51:41;101030.97;;;12.56;69.80
33625;BME280;19962;47.820;1.930;2024-03-06T12:54:07;101031.47;;;12.65;69.42
33625;BME280;19962;47.820;1.930;2024-03-06T12:56:34;101025.00;;;12.59;69.12
33625;BME280;19962;47.820;1.930;2024-03-06T12:59:01;101030.38;;;12.54;69.64